Terminal Aerodrome Forecast
Issued by NWS Albany, NY

Home | Current Version | Previous Version | Text Only | Print | Product List | Glossary On
Versions: 1 2 3 4 5 6 7 8 9 10 11 12 13 14 15 16 17 18 19
000
FTUS41 KALY 270100 AAA
TAFGFL
TAF AMD
KGFL 270100Z 2701/2724 VRB03KT P6SM SCT050 BKN120 WS020/19030KT
     FM270200 18005KT P6SM VCSH SCT025 OVC050 WS020/19035KT
     FM270400 19004KT 4SM -SHRA BR BKN015 OVC025 WS020/20030KT
     FM270900 21004KT 3SM BR BKN005 OVC009
     FM271300 19004KT P6SM SCT015 OVC025
     FM271600 18006KT P6SM SCT050=

USA.gov is the U.S. government's official web portal to all federal, state and local government web resources and services.